Harvey Cedars Boro, New Jersey
Current Conditions -  °F | °C
As of 6:15 PM on Friday 31 Oct 2014 (Local Time) from KMJX Reporting Station
Overcast Overcast  
Wind Chill: 46°   Ceiling: 3300
Heat Index: 48°   Visibility: 10mi
Dew Point: 43°   Wind: 5mph
Humidity: 82%   Direction: 10°N
Pressure: 29.88"   Gusts: NA
Location:  39.623°N, 74.1974°W
Report Text: KMJX 312215Z AUTO 01004KT 10SM BKN033 BKN040 OVC055 09/06 A2988 RMK AO1
Loading
Personal Weather Stations






























Interactive Weather Map
Tropical Storm Tracking
New forecast layout! Learn more

10-Day Weather Forecast

Advertisements
Track Severe Weather on mobile